Time;durP1;ratioP1;P1;durP2;ratioP2;P2;SDS_P1;SDS_P2;PMS_P1;PMS_P2;Temp;Humidity;BMP_temperature;BMP_pressure;BME280_temperature;BME280_humidity;BME280_pressure;Samples;Min_cycle;Max_cycle;Signal;HPM_P1;HPM_P2
2022/10/06 00:01:19;;;;;;;14.75;7.60;;;;;;;;;;5011759;28;20029;-79
2022/10/06 00:03:45;;;;;;;12.30;8.07;;;;;;;;;;5011674;28;20026;-79
2022/10/06 00:06:13;;;;;;;17.08;7.93;;;;;;;;;;4995122;28;20375;-79
2022/10/06 00:08:40;;;;;;;12.02;7.65;;;;;;;;;;5029636;28;20049;-78
2022/10/06 00:11:08;;;;;;;11.02;7.10;;;;;;;;;;5011516;28;20389;-78
2022/10/06 00:13:34;;;;;;;14.10;6.65;;;;;;;;;;5011480;28;20466;-78
2022/10/06 00:16:01;;;;;;;11.68;7.65;;;;;;;;;;5029322;28;20049;-78
2022/10/06 00:18:27;;;;;;;15.90;7.32;;;;;;;;;;5029556;28;20144;-78
2022/10/06 00:20:58;;;;;;;13.27;7.57;;;;;;;;;;5011544;28;20040;-79
2022/10/06 00:23:24;;;;;;;14.27;7.18;;;;;;;;;;5029158;28;20072;-80
2022/10/06 00:25:49;;;;;;;11.30;7.07;;;;;;;;;;5013810;28;20470;-79
2022/10/06 00:28:15;;;;;;;16.67;8.18;;;;;;;;;;5009586;28;20386;-79
2022/10/06 00:30:41;;;;;;;14.38;6.93;;;;;;;;;;5009519;28;20030;-78
2022/10/06 00:33:11;;;;;;;12.27;6.38;;;;;;;;;;5012363;28;20037;-78
2022/10/06 00:35:37;;;;;;;12.00;6.75;;;;;;;;;;5013292;28;20030;-79
2022/10/06 00:38:03;;;;;;;12.77;6.72;;;;;;;;;;5013179;28;20048;-78
2022/10/06 00:40:29;;;;;;;13.20;6.55;;;;;;;;;;5013385;28;20022;-79
2022/10/06 00:43:05;;;;;;;13.18;6.88;;;;;;;;;;5013289;28;20018;-78
2022/10/06 00:45:39;;;;;;;13.50;7.35;;;;;;;;;;5013490;28;20029;-78
2022/10/06 00:48:22;;;;;;;17.60;7.55;;;;;;;;;;5013561;28;20025;-78
2022/10/06 00:50:50;;;;;;;11.95;6.28;;;;;;;;;;4995828;28;20042;-79
2022/10/06 00:53:15;;;;;;;11.70;7.63;;;;;;;;;;5012651;28;20037;-77
2022/10/06 00:55:41;;;;;;;9.13;6.55;;;;;;;;;;4995091;28;20026;-78
2022/10/06 00:58:09;;;;;;;13.57;6.60;;;;;;;;;;4995037;28;20029;-81
2022/10/06 01:00:34;;;;;;;13.00;6.72;;;;;;;;;;4995142;28;20026;-78
2022/10/06 01:03:17;;;;;;;17.35;7.38;;;;;;;;;;5012862;28;20030;-78
2022/10/06 01:05:47;;;;;;;11.45;7.25;;;;;;;;;;4995235;28;20034;-79
2022/10/06 01:08:13;;;;;;;11.45;6.68;;;;;;;;;;4994944;28;20083;-79
2022/10/06 01:10:39;;;;;;;15.45;8.05;;;;;;;;;;4995129;28;20175;-79
2022/10/06 01:13:05;;;;;;;15.25;7.57;;;;;;;;;;4994751;28;20406;-78
2022/10/06 01:15:32;;;;;;;14.27;8.38;;;;;;;;;;5012521;28;20690;-78
2022/10/06 01:18:07;;;;;;;13.45;7.75;;;;;;;;;;5012899;28;20125;-79
2022/10/06 01:20:33;;;;;;;13.20;7.43;;;;;;;;;;4994681;28;20033;-79
2022/10/06 01:23:04;;;;;;;14.32;7.47;;;;;;;;;;4994916;28;20458;-79
2022/10/06 01:25:33;;;;;;;14.43;7.40;;;;;;;;;;5025442;28;20031;-78
2022/10/06 01:28:01;;;;;;;16.30;7.40;;;;;;;;;;5014629;28;20030;-79
2022/10/06 01:30:45;;;;;;;14.52;8.88;;;;;;;;;;5032302;28;20024;-79
2022/10/06 01:33:10;;;;;;;16.38;8.48;;;;;;;;;;5032106;28;20029;-77
2022/10/06 01:35:36;;;;;;;14.07;8.13;;;;;;;;;;5032017;28;20044;-79
2022/10/06 01:38:02;;;;;;;15.52;8.68;;;;;;;;;;5014431;28;20032;-79
2022/10/06 01:40:28;;;;;;;12.25;7.40;;;;;;;;;;5031654;28;20094;-79
2022/10/06 01:42:54;;;;;;;16.90;8.48;;;;;;;;;;5031500;28;20026;-79
2022/10/06 01:45:20;;;;;;;15.15;8.27;;;;;;;;;;5031766;28;20021;-79
2022/10/06 01:47:45;;;;;;;18.30;8.18;;;;;;;;;;5031911;28;20063;-78
2022/10/06 01:50:11;;;;;;;15.05;8.27;;;;;;;;;;5013220;28;20092;-78
2022/10/06 01:52:36;;;;;;;17.33;8.68;;;;;;;;;;5013887;28;20029;-79
2022/10/06 01:55:03;;;;;;;16.10;8.35;;;;;;;;;;5031849;28;20037;-79
2022/10/06 01:57:28;;;;;;;14.80;8.00;;;;;;;;;;5013608;28;20026;-79
2022/10/06 01:59:54;;;;;;;15.32;7.95;;;;;;;;;;5031608;28;20033;-79
2022/10/06 02:02:19;;;;;;;17.48;8.45;;;;;;;;;;5013232;28;20051;-79
2022/10/06 02:04:45;;;;;;;17.23;9.13;;;;;;;;;;5012766;28;20022;-79
2022/10/06 02:07:11;;;;;;;15.05;8.02;;;;;;;;;;5031163;28;20742;-79
2022/10/06 02:09:36;;;;;;;15.52;8.45;;;;;;;;;;5030690;28;20079;-79
2022/10/06 02:12:03;;;;;;;15.77;7.75;;;;;;;;;;5013419;28;20040;-78
2022/10/06 02:14:30;;;;;;;18.67;8.85;;;;;;;;;;5013146;28;20030;-79
2022/10/06 02:16:57;;;;;;;13.50;7.30;;;;;;;;;;5031006;28;20030;-78
2022/10/06 02:19:22;;;;;;;15.88;7.30;;;;;;;;;;5030311;28;20037;-79
2022/10/06 02:21:48;;;;;;;11.13;7.50;;;;;;;;;;5014283;28;20024;-80
2022/10/06 02:24:13;;;;;;;13.88;6.78;;;;;;;;;;5011079;28;20021;-79
2022/10/06 02:26:39;;;;;;;16.70;7.78;;;;;;;;;;4994272;28;20109;-79
2022/10/06 02:29:04;;;;;;;11.95;6.95;;;;;;;;;;4993599;28;20028;-78
2022/10/06 02:31:30;;;;;;;11.55;6.57;;;;;;;;;;5010914;28;20447;-79
2022/10/06 02:33:56;;;;;;;12.63;7.65;;;;;;;;;;4993139;28;20022;-78
2022/10/06 02:36:22;;;;;;;11.73;6.40;;;;;;;;;;4992986;28;20470;-78
2022/10/06 02:38:48;;;;;;;10.30;6.60;;;;;;;;;;4993423;28;20049;-78
2022/10/06 02:41:13;;;;;;;12.52;6.88;;;;;;;;;;4977095;28;20379;-78
2022/10/06 02:43:39;;;;;;;11.85;7.07;;;;;;;;;;5011158;28;20020;-79
2022/10/06 02:46:07;;;;;;;10.70;6.90;;;;;;;;;;5011092;28;20502;-79
2022/10/06 02:48:33;;;;;;;10.70;6.63;;;;;;;;;;5010925;28;20092;-78
2022/10/06 02:51:01;;;;;;;15.43;7.13;;;;;;;;;;4993182;28;20061;-79
2022/10/06 02:53:28;;;;;;;13.25;6.85;;;;;;;;;;5010592;28;20137;-78
2022/10/06 02:56:01;;;;;;;13.75;7.25;;;;;;;;;;5009984;28;20026;-79
2022/10/06 02:58:28;;;;;;;11.38;6.72;;;;;;;;;;4992677;28;20402;-78
2022/10/06 03:01:01;;;;;;;13.88;6.68;;;;;;;;;;5010571;28;20037;-78
2022/10/06 03:03:28;;;;;;;10.68;6.78;;;;;;;;;;5010559;28;20025;-77
2022/10/06 03:06:04;;;;;;;12.13;6.90;;;;;;;;;;5010701;28;20038;-78
2022/10/06 03:08:30;;;;;;;12.32;6.85;;;;;;;;;;4993050;28;20038;-80
2022/10/06 03:11:00;;;;;;;12.27;7.43;;;;;;;;;;4992875;28;20037;-79
2022/10/06 03:13:26;;;;;;;9.23;6.97;;;;;;;;;;5010366;28;20021;-79
2022/10/06 03:15:51;;;;;;;12.85;7.32;;;;;;;;;;4992923;28;20022;-78
2022/10/06 03:18:17;;;;;;;15.07;6.97;;;;;;;;;;4993272;28;20387;-78
2022/10/06 03:20:42;;;;;;;18.55;8.13;;;;;;;;;;5030195;28;20065;-79
2022/10/06 03:23:08;;;;;;;11.65;7.00;;;;;;;;;;5012312;28;20028;-79
2022/10/06 03:25:33;;;;;;;12.90;6.82;;;;;;;;;;4999205;28;20053;-78
2022/10/06 03:27:59;;;;;;;9.55;5.68;;;;;;;;;;5010992;28;20030;-79
2022/10/06 03:30:24;;;;;;;10.35;5.93;;;;;;;;;;5010585;28;20069;-79
2022/10/06 03:32:51;;;;;;;10.77;6.18;;;;;;;;;;4992850;28;20022;-79
2022/10/06 03:35:16;;;;;;;14.23;6.32;;;;;;;;;;5010396;28;20132;-80
2022/10/06 03:37:42;;;;;;;9.05;5.97;;;;;;;;;;4992835;28;20108;-79
2022/10/06 03:40:08;;;;;;;11.07;6.95;;;;;;;;;;4992445;28;20482;-78
2022/10/06 03:42:33;;;;;;;17.33;6.68;;;;;;;;;;4992097;28;20037;-77
2022/10/06 03:44:59;;;;;;;14.63;6.55;;;;;;;;;;5010091;28;20105;-79
2022/10/06 03:47:25;;;;;;;11.55;6.63;;;;;;;;;;4992313;28;20100;-78
2022/10/06 03:49:50;;;;;;;10.43;6.28;;;;;;;;;;4992264;28;20232;-81
2022/10/06 03:52:16;;;;;;;12.13;6.80;;;;;;;;;;5009697;28;20109;-79
2022/10/06 03:54:41;;;;;;;11.68;6.70;;;;;;;;;;5010048;28;20439;-79
2022/10/06 03:57:08;;;;;;;13.43;6.25;;;;;;;;;;5009982;28;20046;-79
2022/10/06 03:59:33;;;;;;;14.68;6.25;;;;;;;;;;5010161;28;20058;-79
2022/10/06 04:01:59;;;;;;;14.25;5.72;;;;;;;;;;4992544;28;20165;-79
2022/10/06 04:04:25;;;;;;;12.43;5.97;;;;;;;;;;5009887;28;20018;-78
2022/10/06 04:06:50;;;;;;;12.40;5.65;;;;;;;;;;5012941;28;20115;-78
2022/10/06 04:09:16;;;;;;;10.23;6.20;;;;;;;;;;4995644;28;20038;-78
2022/10/06 04:11:43;;;;;;;9.57;5.20;;;;;;;;;;5013916;28;20025;-77
2022/10/06 04:14:12;;;;;;;9.20;5.60;;;;;;;;;;5016293;28;20057;-78
2022/10/06 04:16:40;;;;;;;13.20;5.82;;;;;;;;;;5018595;28;20100;-78
2022/10/06 04:19:11;;;;;;;9.15;5.85;;;;;;;;;;5015107;28;20018;-79
2022/10/06 04:21:38;;;;;;;10.40;5.32;;;;;;;;;;5014003;28;20025;-79
2022/10/06 04:24:05;;;;;;;8.30;5.30;;;;;;;;;;5013350;28;20018;-79
2022/10/06 04:26:34;;;;;;;16.90;7.80;;;;;;;;;;4995509;28;20094;-79
2022/10/06 04:29:00;;;;;;;14.85;8.05;;;;;;;;;;5012952;28;20029;-79
2022/10/06 04:31:28;;;;;;;13.43;6.82;;;;;;;;;;4995319;28;20026;-78
2022/10/06 04:33:58;;;;;;;10.88;6.40;;;;;;;;;;4995470;28;20112;-78
2022/10/06 04:36:27;;;;;;;12.65;6.30;;;;;;;;;;4995379;28;20022;-80
2022/10/06 04:38:57;;;;;;;9.10;6.40;;;;;;;;;;5013921;28;20022;-82
2022/10/06 04:41:27;;;;;;;9.02;6.65;;;;;;;;;;5013478;28;20022;-79
2022/10/06 04:43:53;;;;;;;10.05;5.78;;;;;;;;;;4996074;28;20059;-79
2022/10/06 04:46:20;;;;;;;10.85;6.70;;;;;;;;;;5012791;28;20061;-78
2022/10/06 04:48:46;;;;;;;8.45;5.45;;;;;;;;;;4995684;28;20034;-79
2022/10/06 04:51:14;;;;;;;11.15;6.00;;;;;;;;;;5012854;28;20049;-79
2022/10/06 04:53:43;;;;;;;9.73;5.03;;;;;;;;;;5012920;28;20523;-79
2022/10/06 04:56:14;;;;;;;10.10;5.40;;;;;;;;;;4995260;28;20148;-79
2022/10/06 04:58:42;;;;;;;8.98;5.55;;;;;;;;;;4994948;28;20032;-80
2022/10/06 05:01:20;;;;;;;9.07;5.43;;;;;;;;;;4994920;28;20474;-79
2022/10/06 05:03:48;;;;;;;11.90;6.10;;;;;;;;;;5012803;28;20033;-78
2022/10/06 05:06:27;;;;;;;9.55;5.70;;;;;;;;;;5010405;28;20116;-78
2022/10/06 05:08:58;;;;;;;10.63;5.90;;;;;;;;;;5000127;28;20040;-77
2022/10/06 05:11:24;;;;;;;11.75;5.85;;;;;;;;;;5026304;28;20548;-77
2022/10/06 05:13:53;;;;;;;9.65;5.40;;;;;;;;;;5008211;28;20029;-77
2022/10/06 05:16:20;;;;;;;8.45;5.10;;;;;;;;;;5004332;28;20498;-78
2022/10/06 05:18:45;;;;;;;14.98;6.05;;;;;;;;;;5020438;28;20124;-78
2022/10/06 05:21:17;;;;;;;14.43;5.78;;;;;;;;;;5013531;28;20025;-79
2022/10/06 05:23:44;;;;;;;11.30;5.70;;;;;;;;;;5028535;28;20489;-79
2022/10/06 05:26:16;;;;;;;14.80;5.97;;;;;;;;;;5026953;28;20032;-79
2022/10/06 05:28:42;;;;;;;7.97;5.30;;;;;;;;;;4999177;28;20128;-77
2022/10/06 05:31:14;;;;;;;12.10;5.70;;;;;;;;;;5015341;28;20101;-77
2022/10/06 05:33:39;;;;;;;9.20;6.28;;;;;;;;;;5008064;28;20088;-76
2022/10/06 05:36:09;;;;;;;9.60;5.10;;;;;;;;;;5025753;28;20641;-77
2022/10/06 05:38:34;;;;;;;8.98;6.13;;;;;;;;;;5028534;28;20474;-81
2022/10/06 05:41:03;;;;;;;6.15;4.25;;;;;;;;;;4996710;28;20064;-77
2022/10/06 05:43:29;;;;;;;8.85;5.57;;;;;;;;;;5021473;28;20018;-77
2022/10/06 05:45:56;;;;;;;11.13;5.70;;;;;;;;;;5028281;28;20021;-74
2022/10/06 05:48:22;;;;;;;11.77;5.25;;;;;;;;;;5017858;28;20029;-75
2022/10/06 05:50:56;;;;;;;11.52;5.68;;;;;;;;;;5001407;28;20049;-79
2022/10/06 05:53:21;;;;;;;13.88;5.00;;;;;;;;;;5023139;28;20037;-79
2022/10/06 05:55:47;;;;;;;7.95;5.60;;;;;;;;;;5019470;28;20036;-79
2022/10/06 05:58:13;;;;;;;11.70;4.90;;;;;;;;;;5017201;28;20040;-79
2022/10/06 06:00:51;;;;;;;11.43;5.22;;;;;;;;;;5003051;28;20469;-78
2022/10/06 06:03:18;;;;;;;7.75;4.15;;;;;;;;;;5016196;28;20427;-78
2022/10/06 06:05:44;;;;;;;17.60;5.55;;;;;;;;;;4994597;28;20136;-77
2022/10/06 06:08:10;;;;;;;11.05;4.78;;;;;;;;;;5000495;28;20124;-77
2022/10/06 06:10:36;;;;;;;12.00;4.60;;;;;;;;;;4994732;28;20120;-76
2022/10/06 06:13:02;;;;;;;7.85;4.50;;;;;;;;;;5015089;28;20033;-79
2022/10/06 06:18:14;;;;;;;7.63;4.43;;;;;;;;;;5015203;28;20060;-74
2022/10/06 06:20:39;;;;;;;9.90;4.43;;;;;;;;;;4994162;28;20507;-76
2022/10/06 06:23:06;;;;;;;6.43;4.18;;;;;;;;;;5015043;28;20128;-82
2022/10/06 06:25:32;;;;;;;6.18;4.15;;;;;;;;;;4976071;28;20048;-76
2022/10/06 06:27:57;;;;;;;11.07;4.35;;;;;;;;;;5013795;28;20218;-74
2022/10/06 06:30:24;;;;;;;7.93;4.50;;;;;;;;;;4992478;28;20116;-79
2022/10/06 06:32:49;;;;;;;11.82;4.63;;;;;;;;;;4997050;28;20026;-73
2022/10/06 06:35:17;;;;;;;9.75;4.32;;;;;;;;;;5007789;28;20091;-74
2022/10/06 06:37:45;;;;;;;8.98;4.10;;;;;;;;;;4992317;28;20040;-75
2022/10/06 06:40:10;;;;;;;9.90;4.97;;;;;;;;;;4991681;28;20080;-75
2022/10/06 06:42:36;;;;;;;9.85;4.57;;;;;;;;;;5000682;28;20067;-77
2022/10/06 06:45:01;;;;;;;6.13;3.88;;;;;;;;;;5016346;28;20010;-78
2022/10/06 06:47:27;;;;;;;7.38;4.03;;;;;;;;;;5018547;28;20041;-74
2022/10/06 06:49:52;;;;;;;10.43;4.47;;;;;;;;;;4993161;28;20643;-75
2022/10/06 06:52:19;;;;;;;11.00;4.45;;;;;;;;;;5013020;28;20489;-74
2022/10/06 06:54:48;;;;;;;6.85;4.15;;;;;;;;;;5016920;28;20025;-76
2022/10/06 06:57:17;;;;;;;8.55;4.53;;;;;;;;;;4992076;28;20029;-75
2022/10/06 06:59:44;;;;;;;8.45;4.40;;;;;;;;;;4987723;28;20124;-76
2022/10/06 07:02:10;;;;;;;8.00;4.95;;;;;;;;;;4996020;28;20029;-75
2022/10/06 07:04:36;;;;;;;11.93;4.47;;;;;;;;;;5009966;28;20080;-77
2022/10/06 07:07:01;;;;;;;16.48;3.90;;;;;;;;;;4993768;28;21315;-76
2022/10/06 07:09:27;;;;;;;6.75;3.60;;;;;;;;;;4992666;28;20025;-76
2022/10/06 07:11:56;;;;;;;5.88;3.63;;;;;;;;;;4993254;28;20026;-79
2022/10/06 07:14:23;;;;;;;9.07;3.83;;;;;;;;;;5007961;28;20115;-80
2022/10/06 07:25:05;;;;;;;5.95;3.33;;;;;;;;;;5008893;28;20122;-77
2022/10/06 07:25:23;;;;;;;9.05;3.85;;;;;;;;;;5010613;28;20112;-77
2022/10/06 07:27:51;;;;;;;12.25;4.20;;;;;;;;;;4975493;28;20036;-80
2022/10/06 07:30:22;;;;;;;6.95;4.10;;;;;;;;;;5010639;28;20017;-75
2022/10/06 07:32:49;;;;;;;7.90;4.37;;;;;;;;;;4995307;28;20025;-75
2022/10/06 07:35:19;;;;;;;5.15;3.92;;;;;;;;;;4990826;28;20353;-77
2022/10/06 07:37:45;;;;;;;8.30;3.95;;;;;;;;;;5008150;28;20021;-75
2022/10/06 07:40:11;;;;;;;10.25;4.45;;;;;;;;;;5009254;28;20095;-75
2022/10/06 07:42:47;;;;;;;13.15;4.10;;;;;;;;;;4975853;28;20041;-76
2022/10/06 07:48:00;;;;;;;8.90;3.72;;;;;;;;;;5013820;28;20126;-78
2022/10/06 07:50:26;;;;;;;5.80;2.75;;;;;;;;;;4988018;28;20060;-78
2022/10/06 07:52:52;;;;;;;7.60;2.80;;;;;;;;;;4992619;28;20134;-79
2022/10/06 07:55:17;;;;;;;8.10;3.22;;;;;;;;;;4996735;28;20360;-79
2022/10/06 07:57:48;;;;;;;5.50;2.70;;;;;;;;;;4994661;28;20401;-75
2022/10/06 08:00:14;;;;;;;6.65;3.22;;;;;;;;;;4995205;28;20487;-76
2022/10/06 08:02:41;;;;;;;8.43;2.92;;;;;;;;;;5014718;28;21004;-75
2022/10/06 08:05:07;;;;;;;3.70;2.75;;;;;;;;;;4990760;28;20065;-78
2022/10/06 08:07:33;;;;;;;5.93;3.10;;;;;;;;;;4992165;28;20048;-79
2022/10/06 08:09:59;;;;;;;5.90;2.80;;;;;;;;;;4989459;28;20042;-79
2022/10/06 08:12:36;;;;;;;4.82;2.78;;;;;;;;;;5013063;28;20052;-76
2022/10/06 08:15:05;;;;;;;5.00;2.72;;;;;;;;;;4990443;28;20132;-77
2022/10/06 08:17:32;;;;;;;4.72;2.72;;;;;;;;;;5009612;28;20081;-79
2022/10/06 08:19:57;;;;;;;4.43;2.45;;;;;;;;;;4994881;28;20045;-79
2022/10/06 08:22:26;;;;;;;7.80;2.13;;;;;;;;;;4982615;28;20103;-75
2022/10/06 08:24:53;;;;;;;3.95;2.72;;;;;;;;;;5004283;28;20025;-74
2022/10/06 08:27:20;;;;;;;5.13;2.40;;;;;;;;;;4990562;28;20096;-75
2022/10/06 08:29:45;;;;;;;5.03;2.75;;;;;;;;;;4986688;28;20121;-79
2022/10/06 08:32:11;;;;;;;6.63;3.08;;;;;;;;;;4987988;28;20037;-77
2022/10/06 08:34:36;;;;;;;6.00;3.03;;;;;;;;;;4991780;28;20571;-80
2022/10/06 08:37:02;;;;;;;11.30;4.55;;;;;;;;;;5009730;28;20033;-75
2022/10/06 08:39:29;;;;;;;6.15;2.88;;;;;;;;;;4989331;28;21600;-76
2022/10/06 08:41:56;;;;;;;7.75;2.65;;;;;;;;;;5005212;28;20456;-76
2022/10/06 08:44:34;;;;;;;5.47;3.90;;;;;;;;;;5008085;28;20086;-77
2022/10/06 08:47:01;;;;;;;7.55;2.60;;;;;;;;;;4993047;28;20034;-78
2022/10/06 08:49:35;;;;;;;4.95;2.50;;;;;;;;;;4991195;28;20033;-78
2022/10/06 08:52:17;;;;;;;8.68;3.00;;;;;;;;;;5005659;28;20065;-79
2022/10/06 08:55:04;;;;;;;4.40;2.88;;;;;;;;;;4987964;28;20603;-76
2022/10/06 08:58:00;;;;;;;10.05;4.97;;;;;;;;;;4992539;28;20040;-79
2022/10/06 09:00:32;;;;;;;11.82;5.47;;;;;;;;;;5010466;28;20064;-78
2022/10/06 09:02:58;;;;;;;3.13;2.63;;;;;;;;;;5012622;28;20040;-77
2022/10/06 09:05:25;;;;;;;6.97;2.33;;;;;;;;;;5012487;28;20388;-77
2022/10/06 09:08:12;;;;;;;6.15;2.30;;;;;;;;;;4995600;28;20025;-78
2022/10/06 09:10:41;;;;;;;4.15;2.28;;;;;;;;;;4991639;28;20536;-74
2022/10/06 09:13:20;;;;;;;6.97;2.67;;;;;;;;;;5013341;28;20030;-80
2022/10/06 09:15:49;;;;;;;8.95;2.78;;;;;;;;;;5010145;28;20037;-75
2022/10/06 09:18:18;;;;;;;7.25;2.30;;;;;;;;;;4987386;28;20034;-74
2022/10/06 09:20:52;;;;;;;6.90;2.78;;;;;;;;;;4993378;28;20037;-79
2022/10/06 09:23:46;;;;;;;3.63;2.47;;;;;;;;;;4993134;28;20029;-81
2022/10/06 09:26:14;;;;;;;5.03;2.67;;;;;;;;;;4993006;28;20125;-76
2022/10/06 09:28:44;;;;;;;3.97;2.83;;;;;;;;;;4991508;28;20686;-76
2022/10/06 09:31:30;;;;;;;5.55;2.13;;;;;;;;;;4974077;28;20398;-81
2022/10/06 09:34:08;;;;;;;5.22;2.13;;;;;;;;;;4997941;28;20058;-76
2022/10/06 09:36:59;;;;;;;4.85;2.60;;;;;;;;;;4995471;28;20409;-79
2022/10/06 09:39:31;;;;;;;6.53;2.25;;;;;;;;;;4992579;28;20132;-78
2022/10/06 09:42:01;;;;;;;5.18;2.70;;;;;;;;;;4994445;28;20041;-77
2022/10/06 09:44:34;;;;;;;9.07;3.63;;;;;;;;;;4993707;28;20030;-76
2022/10/06 09:47:00;;;;;;;7.63;2.70;;;;;;;;;;4996526;28;20048;-79
2022/10/06 09:49:26;;;;;;;9.43;2.78;;;;;;;;;;4988788;28;20382;-77
2022/10/06 09:52:08;;;;;;;3.30;2.45;;;;;;;;;;4992076;28;20422;-81
2022/10/06 09:54:33;;;;;;;4.30;2.65;;;;;;;;;;4993705;28;20333;-80
2022/10/06 09:57:08;;;;;;;5.72;2.63;;;;;;;;;;4992830;28;20022;-78
2022/10/06 09:59:39;;;;;;;4.35;2.22;;;;;;;;;;4991516;28;20124;-76
2022/10/06 10:02:20;;;;;;;;;;;;;;;;;;4994261;28;20071;-77
2022/10/06 10:04:46;;;;;;;3.97;2.72;;;;;;;;;;5009935;28;19996;-78
2022/10/06 10:07:14;;;;;;;6.28;2.60;;;;;;;;;;5012793;28;20075;-76
2022/10/06 10:09:40;;;;;;;6.38;3.30;;;;;;;;;;5008677;28;20036;-78
2022/10/06 10:12:24;;;;;;;13.57;5.13;;;;;;;;;;5010550;28;20029;-77
2022/10/06 10:14:50;;;;;;;10.85;6.20;;;;;;;;;;5008174;28;20032;-79
2022/10/06 10:17:31;;;;;;;10.40;6.90;;;;;;;;;;4993379;28;20029;-75
2022/10/06 10:19:59;;;;;;;;;;;;;;;;;;5011618;28;20036;-77
2022/10/06 10:22:38;;;;;;;14.57;7.20;;;;;;;;;;5012859;28;20564;-76
2022/10/06 10:25:43;;;;;;;11.20;8.50;;;;;;;;;;4990004;28;20479;-81
2022/10/06 10:28:45;;;;;;;15.65;8.82;;;;;;;;;;4961502;28;20041;-78
2022/10/06 10:31:22;;;;;;;17.35;10.98;;;;;;;;;;5007807;28;20041;-77
2022/10/06 10:33:57;;;;;;;15.00;11.00;;;;;;;;;;4988938;28;20124;-76
2022/10/06 10:36:43;;;;;;;19.08;11.32;;;;;;;;;;5008413;28;20124;-79
2022/10/06 10:39:17;;;;;;;21.17;10.52;;;;;;;;;;4990655;28;20374;-79
2022/10/06 10:41:49;;;;;;;23.17;11.65;;;;;;;;;;4996018;28;20090;-77
2022/10/06 10:44:36;;;;;;;17.65;10.32;;;;;;;;;;5005756;28;20037;-76
2022/10/06 10:47:16;;;;;;;18.05;9.23;;;;;;;;;;4990344;28;20046;-76
2022/10/06 10:49:48;;;;;;;12.82;7.35;;;;;;;;;;5005345;28;20058;-77
2022/10/06 10:52:26;;;;;;;20.60;9.25;;;;;;;;;;4990360;28;20409;-77
2022/10/06 10:54:55;;;;;;;7.85;5.68;;;;;;;;;;5008892;28;20107;-77
2022/10/06 10:57:27;;;;;;;8.77;6.45;;;;;;;;;;5014052;28;20033;-78
2022/10/06 11:00:21;;;;;;;10.15;6.68;;;;;;;;;;4983032;28;20030;-77
2022/10/06 11:02:50;;;;;;;10.00;7.32;;;;;;;;;;4997447;28;20044;-79
2022/10/06 11:05:34;;;;;;;13.82;7.32;;;;;;;;;;4990719;28;20485;-77
2022/10/06 11:08:10;;;;;;;13.25;7.35;;;;;;;;;;4992221;28;20052;-81
2022/10/06 11:10:50;;;;;;;10.90;6.65;;;;;;;;;;4994728;28;20029;-77
2022/10/06 11:13:47;;;;;;;8.63;6.95;;;;;;;;;;4993298;28;20064;-76
2022/10/06 11:16:36;;;;;;;12.60;7.10;;;;;;;;;;5009357;28;20146;-78
2022/10/06 11:19:33;;;;;;;9.45;6.00;;;;;;;;;;4990839;28;20034;-80
2022/10/06 11:22:16;;;;;;;7.50;5.05;;;;;;;;;;4986445;28;20408;-80
2022/10/06 11:25:03;;;;;;;7.38;5.05;;;;;;;;;;4988861;28;20103;-78
2022/10/06 11:27:53;;;;;;;9.48;5.80;;;;;;;;;;5010841;28;20033;-80
2022/10/06 11:30:25;;;;;;;11.23;4.97;;;;;;;;;;4996054;28;20072;-78
2022/10/06 11:33:17;;;;;;;18.20;5.82;;;;;;;;;;5012005;28;20038;-77
2022/10/06 11:35:44;;;;;;;6.13;5.00;;;;;;;;;;4991037;28;20088;-78
2022/10/06 11:38:26;;;;;;;7.88;6.18;;;;;;;;;;4992046;28;20064;-78
2022/10/06 11:41:08;;;;;;;11.82;6.03;;;;;;;;;;5016043;28;20113;-81
2022/10/06 11:44:18;;;;;;;14.25;5.25;;;;;;;;;;5009320;28;20477;-80
2022/10/06 11:46:52;;;;;;;7.00;4.55;;;;;;;;;;5000234;28;20091;-79
2022/10/06 11:49:33;;;;;;;10.98;5.15;;;;;;;;;;4996123;28;20030;-79
2022/10/06 11:52:13;;;;;;;8.68;4.95;;;;;;;;;;4993221;28;20038;-82
2022/10/06 11:54:39;;;;;;;7.88;4.82;;;;;;;;;;4996798;28;20037;-78
2022/10/06 11:57:23;;;;;;;11.82;5.43;;;;;;;;;;4995306;28;20041;-76
2022/10/06 12:00:03;;;;;;;11.50;4.72;;;;;;;;;;5013501;28;20133;-79
2022/10/06 12:02:32;;;;;;;9.57;5.50;;;;;;;;;;4995851;28;20025;-79
2022/10/06 12:05:19;;;;;;;11.88;5.85;;;;;;;;;;5011832;28;20290;-76
2022/10/06 12:07:51;;;;;;;11.00;6.30;;;;;;;;;;5012859;28;20076;-78
2022/10/06 12:10:29;;;;;;;33.60;12.57;;;;;;;;;;4990260;28;20033;-81
2022/10/06 12:12:57;;;;;;;8.05;5.05;;;;;;;;;;5009190;28;20490;-78
2022/10/06 12:15:36;;;;;;;12.05;8.20;;;;;;;;;;4990352;28;20018;-80
2022/10/06 12:18:13;;;;;;;23.60;7.05;;;;;;;;;;4994586;28;20084;-81
2022/10/06 12:21:10;;;;;;;24.85;8.20;;;;;;;;;;4994223;28;20047;-79
2022/10/06 12:24:02;;;;;;;22.90;8.25;;;;;;;;;;4994196;28;20026;-78
2022/10/06 12:26:48;;;;;;;10.57;4.25;;;;;;;;;;4994180;28;20099;-78
2022/10/06 12:29:29;;;;;;;22.30;7.32;;;;;;;;;;4999732;28;20121;-78
2022/10/06 12:32:03;;;;;;;7.43;3.78;;;;;;;;;;5012536;28;20026;-78
2022/10/06 12:34:42;;;;;;;10.35;4.32;;;;;;;;;;5001327;28;20026;-84
2022/10/06 12:37:35;;;;;;;13.13;5.72;;;;;;;;;;4995638;28;20021;-80
2022/10/06 12:40:47;;;;;;;8.68;4.70;;;;;;;;;;4999272;28;20037;-82
2022/10/06 12:43:21;;;;;;;;;;;;;;;;;;5031535;28;20025;-83
2022/10/06 12:45:59;;;;;;;7.30;3.88;;;;;;;;;;5004663;28;20304;-83
2022/10/06 12:48:34;;;;;;;9.00;3.53;;;;;;;;;;5011506;28;20048;-86
2022/10/06 12:51:17;;;;;;;7.28;4.05;;;;;;;;;;5017271;28;20087;-85
2022/10/06 12:54:04;;;;;;;12.05;4.43;;;;;;;;;;5007854;28;20022;-81
2022/10/06 12:56:36;;;;;;;11.93;4.32;;;;;;;;;;5023811;28;20057;-81
2022/10/06 12:59:21;;;;;;;7.25;3.00;;;;;;;;;;5005720;28;20477;-80
2022/10/06 13:01:49;;;;;;;6.88;3.88;;;;;;;;;;5010997;28;20026;-81
2022/10/06 13:04:41;;;;;;;7.53;3.72;;;;;;;;;;5027622;28;20364;-82
2022/10/06 13:07:19;;;;;;;19.25;7.53;;;;;;;;;;5014784;28;20029;-82
2022/10/06 13:09:49;;;;;;;16.23;5.70;;;;;;;;;;5000291;28;20025;-86
2022/10/06 13:12:36;;;;;;;6.60;3.42;;;;;;;;;;4995677;28;20072;-82
2022/10/06 13:15:32;;;;;;;31.15;16.88;;;;;;;;;;5013686;28;20057;-83
2022/10/06 13:18:20;;;;;;;7.53;3.88;;;;;;;;;;5014742;28;20045;-80
2022/10/06 13:20:51;;;;;;;14.38;4.45;;;;;;;;;;4984790;28;20469;-84
2022/10/06 13:23:16;;;;;;;10.55;5.25;;;;;;;;;;5023095;28;20033;-82
2022/10/06 13:25:45;;;;;;;11.85;6.32;;;;;;;;;;4998134;28;20034;-80
2022/10/06 13:28:35;;;;;;;8.68;4.03;;;;;;;;;;5019339;28;20057;-81
2022/10/06 13:31:22;;;;;;;8.07;3.78;;;;;;;;;;5024343;28;20532;-80
2022/10/06 13:34:06;;;;;;;30.60;7.55;;;;;;;;;;5008711;28;20041;-81
2022/10/06 13:36:36;;;;;;;13.75;3.25;;;;;;;;;;4998348;28;20413;-82
2022/10/06 13:39:20;;;;;;;4.07;2.08;;;;;;;;;;5015464;28;20101;-82
2022/10/06 13:41:51;;;;;;;4.93;2.47;;;;;;;;;;5012723;28;20038;-81
2022/10/06 13:44:38;;;;;;;9.35;2.72;;;;;;;;;;5024125;28;20108;-81
2022/10/06 13:47:06;;;;;;;11.38;3.00;;;;;;;;;;5012787;28;20034;-80
2022/10/06 13:49:55;;;;;;;11.25;3.58;;;;;;;;;;4994715;28;20352;-80
2022/10/06 13:52:48;;;;;;;8.27;2.08;;;;;;;;;;5002811;28;20040;-79
2022/10/06 13:55:25;;;;;;;6.43;2.38;;;;;;;;;;5010124;28;20061;-80
2022/10/06 13:58:16;;;;;;;15.98;2.95;;;;;;;;;;5008436;28;20615;-81
2022/10/06 14:00:56;;;;;;;12.70;4.47;;;;;;;;;;5026284;28;20037;-79
2022/10/06 14:03:34;;;;;;;10.25;3.65;;;;;;;;;;5022909;28;20040;-81
2022/10/06 14:06:23;;;;;;;3.92;1.90;;;;;;;;;;4998028;28;20030;-81
2022/10/06 14:08:56;;;;;;;22.73;8.90;;;;;;;;;;5001026;28;20036;-79
2022/10/06 14:11:25;;;;;;;21.40;5.47;;;;;;;;;;5002723;28;20109;-82
2022/10/06 14:13:59;;;;;;;7.22;2.65;;;;;;;;;;4994322;28;20358;-80
2022/10/06 14:16:27;;;;;;;19.35;4.68;;;;;;;;;;5014119;28;20025;-81
2022/10/06 14:18:58;;;;;;;18.45;5.25;;;;;;;;;;5025031;28;20878;-80
2022/10/06 14:21:38;;;;;;;9.35;2.72;;;;;;;;;;5022518;28;20033;-79
2022/10/06 14:24:21;;;;;;;8.77;3.47;;;;;;;;;;5006733;28;20033;-80
2022/10/06 14:26:48;;;;;;;13.10;3.75;;;;;;;;;;5010994;28;20060;-83
2022/10/06 14:29:15;;;;;;;14.43;3.70;;;;;;;;;;5013967;28;20124;-80
2022/10/06 14:31:42;;;;;;;11.80;3.78;;;;;;;;;;5031684;28;20036;-79
2022/10/06 14:34:14;;;;;;;11.85;3.05;;;;;;;;;;4997320;28;20025;-80
2022/10/06 14:36:41;;;;;;;;;;;;;;;;;;5031562;28;20025;-80
2022/10/06 14:39:09;;;;;;;16.60;6.35;;;;;;;;;;5014169;28;19913;-80
2022/10/06 14:41:35;;;;;;;18.02;4.78;;;;;;;;;;5031470;28;20365;-80
2022/10/06 14:44:08;;;;;;;6.13;1.83;;;;;;;;;;5013454;28;20086;-80
2022/10/06 14:46:34;;;;;;;12.15;4.53;;;;;;;;;;5013238;28;20025;-80
2022/10/06 14:49:04;;;;;;;14.63;3.53;;;;;;;;;;5014115;28;20030;-80
2022/10/06 14:51:29;;;;;;;14.13;3.38;;;;;;;;;;5030812;28;20081;-80
2022/10/06 14:53:59;;;;;;;8.77;3.10;;;;;;;;;;5015282;28;20060;-79
2022/10/06 14:56:28;;;;;;;3.83;2.50;;;;;;;;;;5014782;28;20025;-79
2022/10/06 14:58:53;;;;;;;8.18;2.22;;;;;;;;;;5032251;28;20041;-80
2022/10/06 15:01:24;;;;;;;3.78;2.00;;;;;;;;;;5015563;28;20064;-81
2022/10/06 15:03:54;;;;;;;6.93;2.77;;;;;;;;;;5015422;28;20025;-80
2022/10/06 15:09:04;;;;;;;13.10;4.55;;;;;;;;;;5033337;28;20516;-79
2022/10/06 15:11:30;;;;;;;17.17;4.38;;;;;;;;;;5031476;28;20029;-80
2022/10/06 15:13:58;;;;;;;18.83;5.10;;;;;;;;;;5013667;28;20037;-80
2022/10/06 15:16:25;;;;;;;8.07;2.17;;;;;;;;;;5013328;28;20029;-78